sensor_id;sensor_type;location;lat;lon;timestamp;P1;durP1;ratioP1;P2;durP2;ratioP2
17636;SDS011;8937;51.236;6.794;2023-04-03T00:08:01;1.63;;;1.60;;
17636;SDS011;8937;51.236;6.794;2023-04-03T00:16:24;1.90;;;1.80;;
17636;SDS011;8937;51.236;6.794;2023-04-03T00:24:45;1.80;;;1.67;;
17636;SDS011;8937;51.236;6.794;2023-04-03T00:33:08;2.00;;;1.90;;
17636;SDS011;8937;51.236;6.794;2023-04-03T00:41:31;2.20;;;2.10;;
17636;SDS011;8937;51.236;6.794;2023-04-03T00:49:54;2.40;;;2.20;;
17636;SDS011;8937;51.236;6.794;2023-04-03T00:58:15;1.97;;;1.87;;
17636;SDS011;8937;51.236;6.794;2023-04-03T01:06:39;1.57;;;1.57;;
17636;SDS011;8937;51.236;6.794;2023-04-03T01:15:02;2.27;;;2.07;;
17636;SDS011;8937;51.236;6.794;2023-04-03T01:23:26;2.60;;;2.13;;
17636;SDS011;8937;51.236;6.794;2023-04-03T01:31:54;2.30;;;2.10;;
17636;SDS011;8937;51.236;6.794;2023-04-03T01:40:16;2.20;;;2.00;;
17636;SDS011;8937;51.236;6.794;2023-04-03T01:48:39;2.93;;;2.60;;
17636;SDS011;8937;51.236;6.794;2023-04-03T01:57:00;4.07;;;2.80;;
17636;SDS011;8937;51.236;6.794;2023-04-03T02:05:23;2.17;;;2.00;;
17636;SDS011;8937;51.236;6.794;2023-04-03T02:13:44;3.53;;;2.20;;
17636;SDS011;8937;51.236;6.794;2023-04-03T02:22:07;2.20;;;2.10;;
17636;SDS011;8937;51.236;6.794;2023-04-03T02:30:28;2.17;;;2.07;;
17636;SDS011;8937;51.236;6.794;2023-04-03T02:38:51;2.53;;;2.33;;
17636;SDS011;8937;51.236;6.794;2023-04-03T03:05:09;2.30;;;2.10;;
17636;SDS011;8937;51.236;6.794;2023-04-03T03:13:31;2.17;;;2.07;;
17636;SDS011;8937;51.236;6.794;2023-04-03T03:21:53;2.70;;;2.50;;
17636;SDS011;8937;51.236;6.794;2023-04-03T03:30:16;4.13;;;2.43;;
17636;SDS011;8937;51.236;6.794;2023-04-03T03:38:39;3.00;;;2.50;;
17636;SDS011;8937;51.236;6.794;2023-04-03T03:47:00;2.67;;;2.27;;
17636;SDS011;8937;51.236;6.794;2023-04-03T03:55:24;4.43;;;2.83;;
17636;SDS011;8937;51.236;6.794;2023-04-03T04:03:46;2.30;;;1.80;;
17636;SDS011;8937;51.236;6.794;2023-04-03T04:12:08;2.40;;;2.20;;
17636;SDS011;8937;51.236;6.794;2023-04-03T04:20:30;2.40;;;2.20;;
17636;SDS011;8937;51.236;6.794;2023-04-03T04:28:52;4.30;;;2.20;;
17636;SDS011;8937;51.236;6.794;2023-04-03T04:37:14;3.03;;;2.20;;
17636;SDS011;8937;51.236;6.794;2023-04-03T04:45:37;5.40;;;2.57;;
17636;SDS011;8937;51.236;6.794;2023-04-03T04:53:58;4.10;;;2.10;;
17636;SDS011;8937;51.236;6.794;2023-04-03T05:02:21;2.63;;;2.30;;
17636;SDS011;8937;51.236;6.794;2023-04-03T05:10:42;2.40;;;1.90;;
17636;SDS011;8937;51.236;6.794;2023-04-03T05:19:05;2.83;;;1.97;;
17636;SDS011;8937;51.236;6.794;2023-04-03T05:27:26;2.43;;;2.00;;
17636;SDS011;8937;51.236;6.794;2023-04-03T05:35:50;3.50;;;1.90;;
17636;SDS011;8937;51.236;6.794;2023-04-03T05:44:11;1.70;;;1.60;;
17636;SDS011;8937;51.236;6.794;2023-04-03T05:52:35;3.70;;;1.93;;
17636;SDS011;8937;51.236;6.794;2023-04-03T06:00:57;2.67;;;1.90;;
17636;SDS011;8937;51.236;6.794;2023-04-03T06:09:20;2.43;;;2.00;;
17636;SDS011;8937;51.236;6.794;2023-04-03T06:17:42;3.10;;;1.63;;
17636;SDS011;8937;51.236;6.794;2023-04-03T06:26:04;2.20;;;2.00;;
17636;SDS011;8937;51.236;6.794;2023-04-03T06:34:27;2.27;;;2.07;;
17636;SDS011;8937;51.236;6.794;2023-04-03T06:42:49;2.53;;;1.90;;
17636;SDS011;8937;51.236;6.794;2023-04-03T06:51:16;3.20;;;2.20;;
17636;SDS011;8937;51.236;6.794;2023-04-03T06:59:40;3.40;;;1.77;;
17636;SDS011;8937;51.236;6.794;2023-04-03T07:08:02;1.70;;;1.60;;
17636;SDS011;8937;51.236;6.794;2023-04-03T07:16:24;3.43;;;1.90;;
17636;SDS011;8937;51.236;6.794;2023-04-03T07:24:46;2.90;;;1.90;;
17636;SDS011;8937;51.236;6.794;2023-04-03T07:33:09;1.53;;;1.43;;
17636;SDS011;8937;51.236;6.794;2023-04-03T07:41:30;2.67;;;1.40;;
17636;SDS011;8937;51.236;6.794;2023-04-03T07:49:53;2.07;;;1.53;;
17636;SDS011;8937;51.236;6.794;2023-04-03T07:58:16;5.00;;;1.70;;
17636;SDS011;8937;51.236;6.794;2023-04-03T08:06:39;1.50;;;1.40;;
17636;SDS011;8937;51.236;6.794;2023-04-03T08:15:00;1.97;;;1.50;;
17636;SDS011;8937;51.236;6.794;2023-04-03T08:23:23;5.40;;;1.57;;
17636;SDS011;8937;51.236;6.794;2023-04-03T08:31:44;3.93;;;1.43;;
17636;SDS011;8937;51.236;6.794;2023-04-03T08:40:11;1.33;;;1.23;;
17636;SDS011;8937;51.236;6.794;2023-04-03T08:48:34;1.90;;;1.23;;
17636;SDS011;8937;51.236;6.794;2023-04-03T08:56:58;1.57;;;1.10;;
17636;SDS011;8937;51.236;6.794;2023-04-03T09:05:24;1.13;;;1.00;;
17636;SDS011;8937;51.236;6.794;2023-04-03T09:13:52;1.07;;;1.07;;
17636;SDS011;8937;51.236;6.794;2023-04-03T09:22:16;1.97;;;1.10;;
17636;SDS011;8937;51.236;6.794;2023-04-03T09:30:39;1.20;;;1.10;;
17636;SDS011;8937;51.236;6.794;2023-04-03T09:39:04;1.27;;;1.17;;
17636;SDS011;8937;51.236;6.794;2023-04-03T09:47:28;1.97;;;1.33;;
17636;SDS011;8937;51.236;6.794;2023-04-03T09:55:50;1.50;;;1.10;;
17636;SDS011;8937;51.236;6.794;2023-04-03T10:04:13;1.10;;;1.10;;
17636;SDS011;8937;51.236;6.794;2023-04-03T10:12:35;1.67;;;1.30;;
17636;SDS011;8937;51.236;6.794;2023-04-03T10:20:59;1.80;;;1.27;;
17636;SDS011;8937;51.236;6.794;2023-04-03T10:29:25;1.37;;;1.20;;
17636;SDS011;8937;51.236;6.794;2023-04-03T10:37:53;1.50;;;1.40;;
17636;SDS011;8937;51.236;6.794;2023-04-03T10:46:18;1.33;;;1.10;;
17636;SDS011;8937;51.236;6.794;2023-04-03T10:54:42;1.10;;;1.10;;
17636;SDS011;8937;51.236;6.794;2023-04-03T11:03:06;1.90;;;1.60;;
17636;SDS011;8937;51.236;6.794;2023-04-03T11:11:31;1.40;;;1.40;;
17636;SDS011;8937;51.236;6.794;2023-04-03T11:19:57;1.20;;;1.10;;
17636;SDS011;8937;51.236;6.794;2023-04-03T11:28:21;1.30;;;0.90;;
17636;SDS011;8937;51.236;6.794;2023-04-03T11:36:44;1.27;;;0.77;;
17636;SDS011;8937;51.236;6.794;2023-04-03T11:53:54;1.33;;;0.90;;
17636;SDS011;8937;51.236;6.794;2023-04-03T12:11:15;0.80;;;0.80;;
17636;SDS011;8937;51.236;6.794;2023-04-03T12:19:42;0.97;;;0.97;;
17636;SDS011;8937;51.236;6.794;2023-04-03T12:28:09;1.00;;;1.00;;
17636;SDS011;8937;51.236;6.794;2023-04-03T12:36:34;0.90;;;0.90;;
17636;SDS011;8937;51.236;6.794;2023-04-03T12:45:02;1.83;;;1.17;;
17636;SDS011;8937;51.236;6.794;2023-04-03T12:53:27;1.10;;;1.00;;
17636;SDS011;8937;51.236;6.794;2023-04-03T13:01:55;1.37;;;1.13;;
17636;SDS011;8937;51.236;6.794;2023-04-03T13:10:17;1.23;;;1.13;;
17636;SDS011;8937;51.236;6.794;2023-04-03T13:18:40;2.33;;;1.20;;
17636;SDS011;8937;51.236;6.794;2023-04-03T13:27:02;1.20;;;1.10;;
17636;SDS011;8937;51.236;6.794;2023-04-03T13:35:27;1.83;;;1.13;;
17636;SDS011;8937;51.236;6.794;2023-04-03T13:43:48;0.90;;;0.90;;
17636;SDS011;8937;51.236;6.794;2023-04-03T13:52:25;1.90;;;1.23;;
17636;SDS011;8937;51.236;6.794;2023-04-03T14:00:48;1.70;;;1.40;;
17636;SDS011;8937;51.236;6.794;2023-04-03T14:09:12;1.40;;;1.30;;
17636;SDS011;8937;51.236;6.794;2023-04-03T14:17:33;1.53;;;1.10;;
17636;SDS011;8937;51.236;6.794;2023-04-03T14:25:57;1.17;;;1.17;;
17636;SDS011;8937;51.236;6.794;2023-04-03T14:34:20;4.10;;;1.30;;
17636;SDS011;8937;51.236;6.794;2023-04-03T14:42:43;1.37;;;0.97;;
17636;SDS011;8937;51.236;6.794;2023-04-03T14:51:04;1.83;;;1.20;;
17636;SDS011;8937;51.236;6.794;2023-04-03T14:59:27;1.27;;;1.23;;
17636;SDS011;8937;51.236;6.794;2023-04-03T15:07:49;1.97;;;1.10;;
17636;SDS011;8937;51.236;6.794;2023-04-03T15:16:14;1.53;;;1.30;;
17636;SDS011;8937;51.236;6.794;2023-04-03T15:24:36;1.20;;;0.90;;
17636;SDS011;8937;51.236;6.794;2023-04-03T15:32:59;1.30;;;1.20;;
17636;SDS011;8937;51.236;6.794;2023-04-03T15:41:20;2.40;;;1.00;;
17636;SDS011;8937;51.236;6.794;2023-04-03T15:49:43;2.37;;;1.30;;
17636;SDS011;8937;51.236;6.794;2023-04-03T15:58:04;1.30;;;1.20;;
17636;SDS011;8937;51.236;6.794;2023-04-03T16:06:27;1.27;;;1.10;;
17636;SDS011;8937;51.236;6.794;2023-04-03T16:14:50;2.33;;;1.30;;
17636;SDS011;8937;51.236;6.794;2023-04-03T16:23:14;1.23;;;1.17;;
17636;SDS011;8937;51.236;6.794;2023-04-03T16:31:35;1.37;;;1.23;;
17636;SDS011;8937;51.236;6.794;2023-04-03T16:39:58;0.90;;;0.90;;
17636;SDS011;8937;51.236;6.794;2023-04-03T16:48:19;1.20;;;1.10;;
17636;SDS011;8937;51.236;6.794;2023-04-03T16:56:42;4.30;;;1.43;;
17636;SDS011;8937;51.236;6.794;2023-04-03T17:05:03;1.40;;;1.30;;
17636;SDS011;8937;51.236;6.794;2023-04-03T17:13:26;1.23;;;1.13;;
17636;SDS011;8937;51.236;6.794;2023-04-03T17:21:52;2.60;;;1.10;;
17636;SDS011;8937;51.236;6.794;2023-04-03T17:30:15;3.43;;;1.30;;
17636;SDS011;8937;51.236;6.794;2023-04-03T17:38:36;2.13;;;1.40;;
17636;SDS011;8937;51.236;6.794;2023-04-03T17:46:59;1.77;;;1.30;;
17636;SDS011;8937;51.236;6.794;2023-04-03T17:55:22;1.43;;;1.33;;
17636;SDS011;8937;51.236;6.794;2023-04-03T18:03:45;1.10;;;1.10;;
17636;SDS011;8937;51.236;6.794;2023-04-03T18:12:07;2.87;;;1.50;;
17636;SDS011;8937;51.236;6.794;2023-04-03T18:20:30;5.33;;;1.70;;
17636;SDS011;8937;51.236;6.794;2023-04-03T18:28:52;2.90;;;1.30;;
17636;SDS011;8937;51.236;6.794;2023-04-03T18:37:16;2.67;;;1.10;;
17636;SDS011;8937;51.236;6.794;2023-04-03T18:45:40;1.30;;;1.20;;
17636;SDS011;8937;51.236;6.794;2023-04-03T18:54:02;1.97;;;1.20;;
17636;SDS011;8937;51.236;6.794;2023-04-03T19:02:24;1.60;;;1.50;;
17636;SDS011;8937;51.236;6.794;2023-04-03T19:10:47;1.50;;;1.27;;
17636;SDS011;8937;51.236;6.794;2023-04-03T19:19:08;2.03;;;1.27;;
17636;SDS011;8937;51.236;6.794;2023-04-03T19:27:31;1.37;;;1.30;;
17636;SDS011;8937;51.236;6.794;2023-04-03T19:35:53;2.77;;;1.30;;
17636;SDS011;8937;51.236;6.794;2023-04-03T19:44:16;1.63;;;1.43;;
17636;SDS011;8937;51.236;6.794;2023-04-03T19:52:38;1.43;;;1.37;;
17636;SDS011;8937;51.236;6.794;2023-04-03T20:01:01;1.67;;;1.30;;
17636;SDS011;8937;51.236;6.794;2023-04-03T20:09:22;1.40;;;1.30;;
17636;SDS011;8937;51.236;6.794;2023-04-03T20:17:45;1.60;;;1.50;;
17636;SDS011;8937;51.236;6.794;2023-04-03T20:26:07;1.53;;;1.43;;
17636;SDS011;8937;51.236;6.794;2023-04-03T20:34:29;1.70;;;1.40;;
17636;SDS011;8937;51.236;6.794;2023-04-03T20:42:51;1.53;;;1.43;;
17636;SDS011;8937;51.236;6.794;2023-04-03T20:51:14;1.40;;;1.30;;
17636;SDS011;8937;51.236;6.794;2023-04-03T20:59:37;1.30;;;1.20;;
17636;SDS011;8937;51.236;6.794;2023-04-03T21:25:02;2.30;;;1.00;;
17636;SDS011;8937;51.236;6.794;2023-04-03T21:33:23;2.20;;;1.57;;
17636;SDS011;8937;51.236;6.794;2023-04-03T21:41:46;2.17;;;1.37;;
17636;SDS011;8937;51.236;6.794;2023-04-03T21:50:08;1.40;;;1.30;;
17636;SDS011;8937;51.236;6.794;2023-04-03T21:58:31;2.40;;;1.60;;
17636;SDS011;8937;51.236;6.794;2023-04-03T22:06:53;1.87;;;1.50;;
17636;SDS011;8937;51.236;6.794;2023-04-03T22:15:17;1.43;;;1.33;;
17636;SDS011;8937;51.236;6.794;2023-04-03T22:23:39;1.80;;;1.33;;
17636;SDS011;8937;51.236;6.794;2023-04-03T22:32:01;2.10;;;1.10;;
17636;SDS011;8937;51.236;6.794;2023-04-03T22:40:23;1.10;;;1.07;;
17636;SDS011;8937;51.236;6.794;2023-04-03T22:48:45;2.63;;;1.60;;
17636;SDS011;8937;51.236;6.794;2023-04-03T22:57:07;1.47;;;1.40;;
17636;SDS011;8937;51.236;6.794;2023-04-03T23:05:30;1.40;;;1.30;;
17636;SDS011;8937;51.236;6.794;2023-04-03T23:13:51;1.97;;;1.33;;
17636;SDS011;8937;51.236;6.794;2023-04-03T23:22:14;1.93;;;1.80;;
17636;SDS011;8937;51.236;6.794;2023-04-03T23:30:36;2.57;;;1.80;;
17636;SDS011;8937;51.236;6.794;2023-04-03T23:38:59;1.60;;;1.50;;
17636;SDS011;8937;51.236;6.794;2023-04-03T23:47:20;3.00;;;1.60;;
17636;SDS011;8937;51.236;6.794;2023-04-03T23:55:43;1.50;;;1.40;;
